Terminal Aerodrome Forecast
Issued by NWS

Home | Current Version | Previous Version | Text Only | Print | Product List | Glossary On
Versions: 1 2 3 4 5 6 7 8 9 10 11 12 13 14 15 16 17 18 19 20 21 22 23 24
000
FTUS43 KEAX 271731
TAFSTJ
TAF
KSTJ 271731Z 2718/2818 21015G19KT P6SM BKN023 BKN029
     FM272100 25007KT P6SM -SHRA BKN020
      TEMPO 2721/2724 4SM -TSRA BR OVC015CB
     FM280100 27006KT P6SM BKN020=

USA.gov is the U.S. government's official web portal to all federal, state and local government web resources and services.